Terminal Aerodrome Forecast
Issued by NWS

Home | Current Version | Previous Version | Text Only | Print | Product List | Glossary On
Versions: 1 2 3 4 5 6 7 8 9 10 11 12 13 14 15 16 17 18 19 20 21 22 23 24 25 26
000
FTUS43 KGRB 192300 RRA
TAFATW
TAF
KATW 192342Z 2000/2024 28009KT P6SM SCT035 BKN070
     FM200500 31004KT 4SM BR SCT035 BKN070
      TEMPO 2006/2008 2SM BR SCT005
     FM200800 30004KT 3/4SM BR BKN004
     FM201400 31006KT 3SM BR BKN012
     FM201700 30006KT P6SM BKN030=

USA.gov is the U.S. government's official web portal to all federal, state and local government web resources and services.